Aérodrome :
LOGIN :

S'inscrire | Disclaimer

   EN    FR    IT 

 










Légende :    VFR   VFR Marginal   IFR   IFR Intensif   IFR Très Intensif
Visi : 
Plafond : 
>= 8 km
>= 3000ft
5 à 8 km
1000 à 3000 ft
1500m à 5 km
500 à 1000 ft
800 à 1500m
200 à 500 ft
< 800m
< 200 ft
Symboles :   Orages  Brouillard  Fortes neiges  Fortes précipitations  Vent > 20 kt
SIGMETs :   Divers  Orages  Givrage  Turbulence  Onde Orograph.  Cendres Volcan.







- Altitude de l'aérodrome : 461 ft
- Code IATA : WIE


ETOU - Wiesbaden Army

DERNIER METAR :
  • 151956Z AUTO 10007KT 9999 OVC032 M01/M09 A3014 RMK AO2 SLP217 T10061093 $

METARs EXPIRÉS :
  • 151856Z AUTO 10009KT 9999 OVC032 00/M09 A3017 RMK AO2 SLP227 T10021089 $
  • 151756Z AUTO 11007KT 9999 OVC031 00/M09 A3019 RMK AO2 SLP234 T00021090 10007 20002 57015 $
  • 151656Z AUTO 11008KT 9999 OVC030 00/M09 A3020 RMK AO2 SLP237 T00031087 $

TAF TAF ETOU
Valide du 15 à 12h jusqu'au 16 à 18h UTC


151158Z 1512/1618 10009KT 9999 OVC030 620303 QNH3007INS
BECMG 1520/1521 12009KT 9999 SCT020 QNH2986INS
BECMG 1603/1604 15009KT 8000 -SN OVC015 620159 QNH2984INS
TEMPO 1605/1611 8000 -FZDZ BKN007 660003
BECMG 1610/1611 18006KT 8000 -RA OVC015 620154 QNH2985INS
BECMG 1611/1612 18006KT 9999 NSW OVC015 620154 QNH2987INS TX02/1612Z TNM01/1604Z
Pas de NOTAMs connus pour ce terrain.



MET'MAP, la Météo Aéronautique d'un coup d'oeil ! - Copyright ORBIFLY Décembre 2007 - Disclaimer

ORBIFLY MET'MAP TEAM :

Programmation & Développement : Alexandra Zaïnal
Conception & Développement : Baudouin d'Aumeries
Co-Programmation & Développement : Marc-Olivier Méhu
Soutien technique & logistique : Manuel Goepfert

Contact : metmap@orbifly.com




SOURCES & CREDITS :

   NOAA